createdAt,value
2018-02-22T00:00:26.888Z,13.63
2018-02-22T00:02:54.466Z,13.20
2018-02-22T00:05:22.055Z,14.47
2018-02-22T00:07:50.382Z,13.27
2018-02-22T00:10:17.969Z,13.17
2018-02-22T00:12:45.616Z,14.10
2018-02-22T00:15:13.950Z,13.40
2018-02-22T00:17:42.307Z,14.03
2018-02-22T00:20:09.882Z,13.73
2018-02-22T00:22:37.456Z,13.60
2018-02-22T00:25:05.788Z,14.53
2018-02-22T00:27:33.346Z,14.60
2018-02-22T00:30:00.962Z,14.00
2018-02-22T00:32:28.523Z,13.47
2018-02-22T00:34:56.093Z,14.17
2018-02-22T00:37:23.692Z,14.20
2018-02-22T00:39:51.252Z,14.70
2018-02-22T00:42:18.837Z,14.10
2018-02-22T00:44:46.424Z,14.97
2018-02-22T00:47:14.068Z,14.80
2018-02-22T00:49:41.641Z,14.17
2018-02-22T00:52:09.248Z,14.13
2018-02-22T00:54:36.843Z,14.90
2018-02-22T00:57:05.166Z,15.23
2018-02-22T00:59:32.825Z,15.43
2018-02-22T01:02:00.397Z,15.07
2018-02-22T01:04:27.967Z,14.90
2018-02-22T01:06:55.559Z,15.00
2018-02-22T01:09:24.477Z,15.57
2018-02-22T01:11:52.811Z,15.90
2018-02-22T01:14:20.410Z,15.53
2018-02-22T01:16:47.980Z,15.23
2018-02-22T01:19:15.887Z,15.13
2018-02-22T01:21:43.470Z,15.37
2018-02-22T01:24:11.035Z,15.70
2018-02-22T01:26:38.606Z,15.90
2018-02-22T01:29:06.266Z,15.93
2018-02-22T01:31:33.872Z,15.70
2018-02-22T01:34:01.429Z,14.97
2018-02-22T01:36:29.003Z,15.83
2018-02-22T01:38:56.577Z,15.67
2018-02-22T01:41:24.153Z,14.93
2018-02-22T01:43:51.749Z,16.13
2018-02-22T01:46:19.326Z,15.77
2018-02-22T01:48:46.896Z,15.73
2018-02-22T01:51:14.457Z,15.47
2018-02-22T01:53:42.116Z,16.77
2018-02-22T01:56:10.088Z,15.43
2018-02-22T01:58:37.668Z,16.50
2018-02-22T02:01:05.214Z,16.70
2018-02-22T02:03:32.795Z,16.50
2018-02-22T02:06:00.648Z,16.17
2018-02-22T02:08:29.000Z,16.00
2018-02-22T02:10:56.537Z,16.20
2018-02-22T02:13:24.102Z,14.90
2018-02-22T02:15:51.651Z,14.77
2018-02-22T02:18:19.227Z,15.17
2018-02-22T02:20:46.990Z,15.47
2018-02-22T02:23:14.578Z,15.40
2018-02-22T02:25:42.144Z,15.87
2018-02-22T02:28:09.712Z,14.93
2018-02-22T02:30:37.266Z,15.27
2018-02-22T02:33:04.862Z,14.43
2018-02-22T02:35:32.433Z,14.87
2018-02-22T02:37:59.986Z,14.70
2018-02-22T02:40:27.599Z,14.83
2018-02-22T02:42:55.183Z,14.47
2018-02-22T02:45:22.886Z,14.00
2018-02-22T02:47:50.490Z,14.50
2018-02-22T02:50:18.810Z,14.20
2018-02-22T02:52:46.414Z,14.13
2018-02-22T02:55:13.992Z,15.00
2018-02-22T02:57:41.622Z,14.37
2018-02-22T03:00:09.186Z,13.73
2018-02-22T03:02:36.773Z,14.00
2018-02-22T03:05:04.419Z,14.07
2018-02-22T03:07:31.995Z,14.10
2018-02-22T03:09:59.596Z,13.73
2018-02-22T03:12:28.087Z,13.73
2018-02-22T03:14:56.413Z,13.97
2018-02-22T03:17:23.987Z,12.90
2018-02-22T03:19:51.542Z,13.40
2018-02-22T03:22:19.130Z,13.60
2018-02-22T03:24:46.695Z,13.43
2018-02-22T03:27:14.363Z,14.23
2018-02-22T03:29:41.927Z,13.60
2018-02-22T03:32:09.484Z,12.30
2018-02-22T03:34:37.073Z,12.63
2018-02-22T03:37:04.659Z,12.93
2018-02-22T03:39:32.994Z,13.20
2018-02-22T03:42:00.567Z,13.27
2018-02-22T03:44:28.136Z,12.40
2018-02-22T03:46:55.722Z,13.10
2018-02-22T03:49:23.298Z,12.63
2018-02-22T03:51:51.633Z,12.43
2018-02-22T03:54:19.215Z,12.37
2018-02-22T03:56:46.795Z,12.07
2018-02-22T03:59:14.386Z,12.43
2018-02-22T04:01:42.766Z,11.80
2018-02-22T04:04:10.317Z,12.27
2018-02-22T04:06:37.903Z,11.60
2018-02-22T04:09:06.248Z,11.80
2018-02-22T04:11:34.177Z,12.60
2018-02-22T04:14:01.745Z,12.10
2018-02-22T04:16:29.304Z,11.37
2018-02-22T04:18:57.619Z,12.00
2018-02-22T04:21:25.189Z,12.40
2018-02-22T04:23:52.772Z,12.63
2018-02-22T04:26:20.339Z,12.00
2018-02-22T04:28:47.895Z,12.20
2018-02-22T04:31:15.460Z,12.87
2018-02-22T04:33:43.785Z,12.17
2018-02-22T04:36:12.487Z,11.83
2018-02-22T04:38:40.872Z,12.57
2018-02-22T04:41:09.228Z,12.53
2018-02-22T04:43:36.799Z,12.90
2018-02-22T04:46:04.359Z,11.93
2018-02-22T04:48:32.026Z,12.50
2018-02-22T04:50:59.578Z,11.83
2018-02-22T04:53:27.351Z,12.07
2018-02-22T04:55:54.912Z,11.10
2018-02-22T04:58:22.495Z,11.33
2018-02-22T05:00:50.420Z,11.90
2018-02-22T05:03:17.984Z,12.20
2018-02-22T05:05:45.543Z,11.23
2018-02-22T05:08:13.131Z,12.07
2018-02-22T05:10:40.723Z,11.93
2018-02-22T05:13:08.383Z,12.43
2018-02-22T05:15:35.953Z,11.40
2018-02-22T05:18:03.520Z,12.13
2018-02-22T05:20:31.072Z,11.57
2018-02-22T05:22:58.735Z,11.57
2018-02-22T05:25:26.680Z,11.97
2018-02-22T05:27:54.304Z,11.13
2018-02-22T05:30:21.860Z,11.70
2018-02-22T05:32:50.190Z,10.67
2018-02-22T05:35:17.757Z,11.60
2018-02-22T05:37:45.382Z,11.10
2018-02-22T05:40:12.948Z,11.60
2018-02-22T05:42:40.536Z,11.37
2018-02-22T05:45:08.859Z,10.67
2018-02-22T05:47:36.446Z,10.43
2018-02-22T05:50:04.328Z,10.37
2018-02-22T05:52:31.907Z,10.87
2018-02-22T05:54:59.479Z,10.40
2018-02-22T05:57:27.046Z,10.63
2018-02-22T05:59:55.387Z,10.03
2018-02-22T06:02:22.974Z,10.43
2018-02-22T06:04:50.548Z,9.93
2018-02-22T06:07:18.121Z,10.23
2018-02-22T06:09:45.905Z,10.00
2018-02-22T06:12:14.227Z,9.17
2018-02-22T06:14:41.836Z,9.63
2018-02-22T06:17:09.421Z,9.87
2018-02-22T06:19:37.738Z,8.80
2018-02-22T06:22:05.314Z,10.33
2018-02-22T06:24:32.890Z,9.03
2018-02-22T06:27:00.464Z,9.33
2018-02-22T06:29:28.027Z,9.20
2018-02-22T06:31:55.596Z,9.60
2018-02-22T06:34:23.161Z,9.40
2018-02-22T06:36:50.723Z,9.30
2018-02-22T06:39:18.501Z,8.70
2018-02-22T06:41:46.070Z,8.97
2018-02-22T06:44:13.631Z,8.77
2018-02-22T06:46:41.233Z,9.43
2018-02-22T06:49:09.550Z,9.37
2018-02-22T06:51:37.126Z,8.63
2018-02-22T06:54:04.679Z,8.63
2018-02-22T06:56:32.246Z,8.07
2018-02-22T06:58:59.819Z,8.80
2018-02-22T07:01:27.363Z,8.33
2018-02-22T07:03:55.250Z,7.97
2018-02-22T07:06:22.828Z,7.67
2018-02-22T07:08:50.410Z,8.43
2018-02-22T07:11:17.988Z,8.00
2018-02-22T07:13:45.552Z,8.33
2018-02-22T07:16:13.137Z,7.33
2018-02-22T07:18:41.464Z,8.10
2018-02-22T07:21:09.030Z,7.33
2018-02-22T07:23:36.598Z,7.60
2018-02-22T07:26:04.152Z,7.53
2018-02-22T07:28:31.756Z,7.90
2018-02-22T07:30:59.328Z,7.57
2018-02-22T07:33:26.908Z,7.57
2018-02-22T07:35:54.476Z,7.90
2018-02-22T07:38:22.029Z,7.37
2018-02-22T07:40:50.504Z,7.47
2018-02-22T07:43:18.086Z,7.33
2018-02-22T07:45:45.655Z,7.03
2018-02-22T07:48:13.226Z,7.20
2018-02-22T07:50:40.787Z,6.60
2018-02-22T07:53:08.645Z,6.83
2018-02-22T07:55:36.225Z,6.40
2018-02-22T07:58:03.792Z,6.57
2018-02-22T08:00:31.355Z,7.07
2018-02-22T08:02:58.920Z,6.07
2018-02-22T08:05:26.498Z,6.20
2018-02-22T08:07:54.827Z,6.07
2018-02-22T08:10:22.377Z,6.40
2018-02-22T08:12:49.942Z,6.67
2018-02-22T08:15:17.552Z,5.80
2018-02-22T08:17:45.526Z,5.67
2018-02-22T08:20:13.090Z,5.87
2018-02-22T08:22:40.648Z,5.87
2018-02-22T08:25:08.267Z,6.00
2018-02-22T08:27:36.614Z,5.77
2018-02-22T08:30:04.187Z,5.67
2018-02-22T08:32:31.742Z,5.57
2018-02-22T08:34:59.316Z,5.90
2018-02-22T08:37:26.949Z,5.33
2018-02-22T08:39:54.614Z,5.60
2018-02-22T08:42:22.212Z,5.43
2018-02-22T08:44:49.796Z,5.70
2018-02-22T08:47:18.134Z,5.70
2018-02-22T08:49:45.708Z,5.43
2018-02-22T08:52:13.263Z,5.57
2018-02-22T08:54:40.842Z,6.17
2018-02-22T08:57:08.408Z,5.67
2018-02-22T08:59:35.966Z,5.60
2018-02-22T09:02:03.528Z,5.90
2018-02-22T09:04:31.118Z,5.60
2018-02-22T09:06:58.732Z,5.73
2018-02-22T09:09:26.279Z,5.20
2018-02-22T09:11:54.626Z,5.57
2018-02-22T09:14:22.460Z,5.20
2018-02-22T09:16:50.025Z,6.00
2018-02-22T09:19:17.630Z,5.37
2018-02-22T09:21:45.199Z,5.53
2018-02-22T09:24:12.760Z,6.27
2018-02-22T09:26:40.582Z,5.40
2018-02-22T09:29:08.910Z,5.33
2018-02-22T09:31:36.489Z,5.70
2018-02-22T09:34:04.042Z,5.47
2018-02-22T09:36:31.686Z,5.97
2018-02-22T09:38:59.203Z,6.10
2018-02-22T09:41:26.772Z,5.53
2018-02-22T09:43:54.338Z,5.83
2018-02-22T09:46:22.683Z,6.90
2018-02-22T09:48:50.263Z,6.17
2018-02-22T09:51:17.815Z,6.33
2018-02-22T09:53:45.403Z,6.40
2018-02-22T09:56:13.004Z,6.63
2018-02-22T09:58:41.349Z,6.07
2018-02-22T10:01:08.991Z,6.87
2018-02-22T10:03:36.545Z,6.43
2018-02-22T10:06:04.102Z,6.57
2018-02-22T10:08:31.689Z,6.80
2018-02-22T10:10:59.254Z,6.50
2018-02-22T10:13:26.834Z,6.80
2018-02-22T10:15:54.397Z,6.97
2018-02-22T10:18:21.971Z,6.77
2018-02-22T10:20:49.542Z,7.10
2018-02-22T10:23:17.107Z,8.33
2018-02-22T10:25:44.679Z,7.93
2018-02-22T10:28:12.252Z,7.77
2018-02-22T10:30:39.827Z,7.60
2018-02-22T10:33:08.171Z,8.00
2018-02-22T10:35:35.740Z,7.87
2018-02-22T10:38:03.306Z,7.67
2018-02-22T10:40:30.888Z,7.60
2018-02-22T10:42:58.462Z,7.80
2018-02-22T10:45:26.056Z,7.40
2018-02-22T10:47:54.397Z,6.83
2018-02-22T10:50:21.958Z,7.53
2018-02-22T10:52:49.533Z,7.07
2018-02-22T10:55:17.135Z,6.40
2018-02-22T10:57:45.484Z,6.93
2018-02-22T11:00:13.047Z,7.47
2018-02-22T11:02:46.301Z,6.67
2018-02-22T11:05:14.063Z,6.93
2018-02-22T11:07:41.729Z,6.43
2018-02-22T11:10:09.390Z,6.20
2018-02-22T11:12:36.972Z,6.57
2018-02-22T11:15:04.550Z,5.70
2018-02-22T11:17:32.113Z,6.17
2018-02-22T11:19:59.701Z,5.60
2018-02-22T11:22:27.259Z,5.63
2018-02-22T11:24:55.685Z,5.40
2018-02-22T11:27:24.046Z,5.53
2018-02-22T11:29:51.605Z,5.30
2018-02-22T11:32:19.169Z,5.50
2018-02-22T11:34:46.753Z,5.40
2018-02-22T11:37:14.318Z,5.17
2018-02-22T11:39:41.903Z,4.47
2018-02-22T11:42:10.225Z,5.10
2018-02-22T11:44:37.810Z,5.30
2018-02-22T11:47:05.396Z,4.90
2018-02-22T11:49:32.988Z,5.20
2018-02-22T11:52:01.338Z,4.50
2018-02-22T11:54:28.999Z,5.40
2018-02-22T11:56:56.571Z,4.40
2018-02-22T11:59:24.138Z,4.07
2018-02-22T12:01:51.695Z,4.20
2018-02-22T12:04:19.290Z,3.60
2018-02-22T12:06:46.905Z,4.07
2018-02-22T12:09:14.442Z,3.50
2018-02-22T12:11:42.775Z,3.33
2018-02-22T12:14:10.348Z,3.63
2018-02-22T12:16:37.946Z,3.70
2018-02-22T12:19:06.359Z,3.70
2018-02-22T12:21:33.992Z,4.00
2018-02-22T12:24:02.305Z,3.77
2018-02-22T12:26:29.875Z,3.77
2018-02-22T12:28:57.486Z,3.70
2018-02-22T12:31:25.111Z,3.60
2018-02-22T12:33:52.702Z,3.80
2018-02-22T12:36:20.280Z,3.60
2018-02-22T12:38:47.850Z,3.90
2018-02-22T12:41:15.569Z,3.43
2018-02-22T12:43:43.128Z,3.80
2018-02-22T12:46:10.753Z,3.47
2018-02-22T12:48:38.364Z,3.20
2018-02-22T12:51:06.151Z,3.70
2018-02-22T12:53:33.742Z,3.40
2018-02-22T12:56:01.371Z,3.80
2018-02-22T12:58:28.922Z,3.20
2018-02-22T13:00:57.272Z,2.97
2018-02-22T13:03:24.825Z,3.20
2018-02-22T13:05:52.450Z,3.13
2018-02-22T13:08:20.012Z,2.70
2018-02-22T13:10:47.705Z,3.10
2018-02-22T13:13:15.298Z,3.00
2018-02-22T13:15:42.875Z,3.13
2018-02-22T13:18:10.453Z,2.73
2018-02-22T13:20:38.795Z,2.97
2018-02-22T13:23:06.357Z,3.07
2018-02-22T13:25:33.923Z,3.40
2018-02-22T13:28:01.495Z,2.67
2018-02-22T13:30:29.075Z,2.73
2018-02-22T13:33:08.557Z,3.13
2018-02-22T13:35:36.143Z,2.93
2018-02-22T13:38:16.676Z,3.20
2018-02-22T13:40:45.026Z,3.10
2018-02-22T13:43:12.733Z,3.37
2018-02-22T13:45:40.308Z,2.90
2018-02-22T13:48:07.983Z,3.27
2018-02-22T13:51:01.503Z,3.10
2018-02-22T13:53:29.055Z,3.27
2018-02-22T13:55:56.631Z,3.17
2018-02-22T13:58:24.179Z,3.40
2018-02-22T14:01:03.776Z,3.50
2018-02-22T14:03:31.331Z,4.17
2018-02-22T14:05:59.097Z,3.60
2018-02-22T14:08:38.432Z,3.90
2018-02-22T14:11:06.002Z,3.53
2018-02-22T14:13:33.677Z,3.93
2018-02-22T14:16:01.241Z,3.90
2018-02-22T14:18:28.814Z,3.87
2018-02-22T14:20:56.496Z,3.50
2018-02-22T14:23:24.125Z,3.90
2018-02-22T14:25:52.452Z,4.03
2018-02-22T14:28:20.096Z,4.13
2018-02-22T14:30:48.422Z,3.60
2018-02-22T14:33:16.016Z,3.97
2018-02-22T14:35:44.341Z,4.00
2018-02-22T14:38:11.908Z,4.23
2018-02-22T14:40:39.496Z,3.73
2018-02-22T14:43:07.054Z,3.97
2018-02-22T14:45:34.706Z,3.43
2018-02-22T14:48:03.121Z,3.97
2018-02-22T14:50:30.709Z,3.77
2018-02-22T14:52:58.281Z,3.67
2018-02-22T14:55:25.855Z,3.60
2018-02-22T14:57:54.221Z,3.70
2018-02-22T15:00:22.563Z,3.50
2018-02-22T15:02:50.133Z,3.63
2018-02-22T15:05:17.680Z,3.43
2018-02-22T15:07:45.269Z,3.60
2018-02-22T15:10:12.856Z,3.00
2018-02-22T15:12:40.418Z,3.90
2018-02-22T15:15:08.026Z,3.60
2018-02-22T15:17:36.370Z,3.40
2018-02-22T15:20:03.937Z,3.60
2018-02-22T15:22:31.540Z,3.50
2018-02-22T15:24:59.874Z,3.27
2018-02-22T15:27:27.428Z,3.17
2018-02-22T15:29:55.015Z,3.10
2018-02-22T15:32:23.473Z,3.37
2018-02-22T15:34:51.072Z,3.10
2018-02-22T15:37:18.645Z,3.13
2018-02-22T15:39:46.216Z,3.43
2018-02-22T15:42:13.784Z,2.97
2018-02-22T15:44:42.248Z,3.23
2018-02-22T15:47:09.847Z,3.33
2018-02-22T15:49:38.183Z,3.20
2018-02-22T15:52:05.837Z,3.20
2018-02-22T15:54:33.403Z,3.37
2018-02-22T15:57:00.995Z,13.27
2018-02-22T15:59:28.703Z,6.57
2018-02-22T16:01:57.047Z,5.73
2018-02-22T16:04:24.629Z,4.67
2018-02-22T16:06:52.190Z,4.20
2018-02-22T16:09:19.771Z,4.27
2018-02-22T16:11:48.127Z,4.10
2018-02-22T16:14:15.740Z,3.70
2018-02-22T16:16:44.083Z,3.97
2018-02-22T16:19:11.673Z,3.83
2018-02-22T16:21:39.287Z,3.83
2018-02-22T16:24:06.909Z,3.70
2018-02-22T16:26:35.230Z,4.00
2018-02-22T16:29:02.803Z,3.80
2018-02-22T16:31:30.386Z,3.60
2018-02-22T16:33:57.974Z,3.80
2018-02-22T16:36:25.901Z,3.80
2018-02-22T16:38:53.470Z,3.97
2018-02-22T16:41:21.075Z,3.87
2018-02-22T16:43:48.647Z,3.93
2018-02-22T16:46:16.219Z,3.47
2018-02-22T16:48:43.839Z,3.80
2018-02-22T16:51:11.418Z,3.50
2018-02-22T16:53:38.999Z,3.67
2018-02-22T16:56:06.587Z,3.40
2018-02-22T16:58:34.188Z,3.50
2018-02-22T17:01:01.787Z,3.40
2018-02-22T17:03:29.350Z,3.37
2018-02-22T17:05:56.906Z,3.10
2018-02-22T17:08:24.470Z,3.30
2018-02-22T17:10:52.037Z,3.30
2018-02-22T17:13:19.987Z,3.13
2018-02-22T17:15:47.614Z,3.20
2018-02-22T17:18:15.202Z,2.83
2018-02-22T17:20:43.532Z,3.40
2018-02-22T17:23:11.121Z,3.10
2018-02-22T17:25:38.195Z,3.20
2018-02-22T17:28:12.161Z,4.70
2018-02-22T17:30:45.295Z,4.40
2018-02-22T17:33:12.871Z,4.07
2018-02-22T17:35:46.309Z,3.93
2018-02-22T17:38:13.881Z,4.23
2018-02-22T17:40:47.124Z,3.47
2018-02-22T17:43:15.463Z,3.67
2018-02-22T17:45:43.040Z,3.93
2018-02-22T17:48:10.612Z,3.40
2018-02-22T17:50:38.211Z,3.60
2018-02-22T17:53:06.780Z,3.47
2018-02-22T17:55:34.348Z,3.53
2018-02-22T17:58:01.915Z,3.57
2018-02-22T18:00:29.472Z,3.77
2018-02-22T18:02:57.057Z,3.70
2018-02-22T18:05:25.423Z,3.63
2018-02-22T18:07:52.993Z,3.50
2018-02-22T18:10:20.612Z,3.50
2018-02-22T18:12:48.207Z,3.20
2018-02-22T18:15:15.781Z,2.97
2018-02-22T18:17:43.429Z,3.10
2018-02-22T18:20:10.997Z,3.40
2018-02-22T18:22:38.563Z,3.20
2018-02-22T18:25:06.124Z,2.90
2018-02-22T18:27:33.687Z,3.27
2018-02-22T18:30:01.303Z,3.17
2018-02-22T18:32:28.944Z,3.60
2018-02-22T18:34:56.696Z,3.37
2018-02-22T18:37:29.905Z,3.27
2018-02-22T18:40:12.342Z,3.33
2018-02-22T18:42:47.275Z,11.27
2018-02-22T18:45:15.650Z,4.50
2018-02-22T18:47:43.221Z,4.43
2018-02-22T18:50:10.804Z,4.10
2018-02-22T18:52:39.923Z,3.80
2018-02-22T18:55:07.558Z,3.50
2018-02-22T18:57:35.946Z,3.47
2018-02-22T19:00:04.320Z,3.40
2018-02-22T19:02:31.892Z,3.30
2018-02-22T19:05:00.229Z,3.20
2018-02-22T19:07:27.854Z,3.30
2018-02-22T19:09:56.316Z,3.23
2018-02-22T19:12:24.004Z,3.37
2018-02-22T19:14:52.374Z,3.00
2018-02-22T19:17:20.060Z,3.23
2018-02-22T19:19:48.425Z,3.00
2018-02-22T19:22:15.999Z,3.33
2018-02-22T19:24:44.340Z,3.20
2018-02-22T19:27:11.921Z,2.80
2018-02-22T19:29:39.514Z,3.10
2018-02-22T19:32:07.925Z,2.90
2018-02-22T19:34:35.503Z,3.07
2018-02-22T19:37:03.089Z,3.43
2018-02-22T19:39:30.669Z,2.97
2018-02-22T19:41:58.244Z,3.20
2018-02-22T19:44:25.931Z,3.60
2018-02-22T19:46:53.521Z,3.17
2018-02-22T19:49:21.110Z,3.20
2018-02-22T19:51:48.738Z,3.10
2018-02-22T19:54:17.098Z,3.10
2018-02-22T19:56:44.710Z,3.00
2018-02-22T19:59:12.309Z,2.83
2018-02-22T20:01:39.911Z,4.90
2018-02-22T20:04:07.613Z,6.50
2018-02-22T20:06:35.324Z,6.07
2018-02-22T20:09:03.013Z,5.10
2018-02-22T20:11:30.600Z,4.30
2018-02-22T20:13:58.941Z,4.73
2018-02-22T20:16:26.516Z,4.10
2018-02-22T20:18:54.112Z,4.20
2018-02-22T20:21:22.566Z,4.00
2018-02-22T20:23:50.944Z,4.00
2018-02-22T20:26:19.555Z,3.80
2018-02-22T20:28:47.151Z,4.13
2018-02-22T20:31:14.721Z,3.93
2018-02-22T20:33:42.321Z,3.90
2018-02-22T20:36:09.913Z,3.70
2018-02-22T20:38:37.522Z,3.73
2018-02-22T20:41:05.094Z,3.63
2018-02-22T20:43:32.676Z,3.17
2018-02-22T20:46:00.297Z,3.50
2018-02-22T20:48:28.631Z,3.60
2018-02-22T20:51:01.668Z,3.47
2018-02-22T20:53:30.631Z,3.73
2018-02-22T20:55:58.210Z,3.23
2018-02-22T20:58:25.781Z,3.47
2018-02-22T21:00:53.343Z,4.77
2018-02-22T21:03:25.544Z,5.80
2018-02-22T21:05:54.426Z,4.30
2018-02-22T21:08:21.935Z,4.27
2018-02-22T21:10:49.556Z,3.87
2018-02-22T21:13:17.896Z,4.10
2018-02-22T21:15:45.473Z,3.90
2018-02-22T21:18:13.820Z,3.53
2018-02-22T21:20:41.498Z,4.47
2018-02-22T21:23:09.094Z,3.50
2018-02-22T21:25:36.656Z,3.77
2018-02-22T21:28:04.291Z,3.70
2018-02-22T21:30:32.702Z,3.47
2018-02-22T21:33:00.293Z,3.70
2018-02-22T21:35:27.923Z,3.70
2018-02-22T21:37:55.614Z,3.60
2018-02-22T21:40:23.238Z,3.60
2018-02-22T21:42:50.798Z,3.87
2018-02-22T21:45:18.375Z,3.97
2018-02-22T21:47:45.944Z,3.90
2018-02-22T21:50:13.528Z,3.30
2018-02-22T21:52:41.129Z,3.43
2018-02-22T21:55:08.693Z,3.50
2018-02-22T21:57:36.286Z,3.23
2018-02-22T22:00:04.629Z,3.33
2018-02-22T22:02:32.308Z,3.50
2018-02-22T22:05:00.217Z,3.40
2018-02-22T22:07:27.795Z,5.07
2018-02-22T22:09:55.364Z,5.60
2018-02-22T22:12:23.022Z,4.67
2018-02-22T22:14:50.599Z,4.63
2018-02-22T22:17:18.211Z,4.00
2018-02-22T22:19:45.860Z,4.20
2018-02-22T22:22:13.506Z,3.93
2018-02-22T22:24:41.075Z,4.30
2018-02-22T22:27:08.649Z,4.13
2018-02-22T22:29:36.228Z,3.80
2018-02-22T22:32:03.809Z,4.17
2018-02-22T22:34:31.381Z,4.10
2018-02-22T22:36:58.941Z,4.10
2018-02-22T22:39:26.523Z,3.80
2018-02-22T22:41:54.875Z,4.13
2018-02-22T22:44:23.234Z,3.93
2018-02-22T22:46:50.815Z,3.90
2018-02-22T22:49:19.148Z,3.50
2018-02-22T22:51:47.487Z,3.67
2018-02-22T22:54:15.081Z,4.20
2018-02-22T22:56:42.645Z,3.90
2018-02-22T22:59:10.204Z,3.80
2018-02-22T23:01:37.771Z,3.97
2018-02-22T23:04:05.377Z,4.20
2018-02-22T23:06:32.992Z,3.87
2018-02-22T23:09:02.079Z,4.07
2018-02-22T23:11:29.643Z,4.17
2018-02-22T23:13:57.204Z,3.90
2018-02-22T23:16:24.777Z,3.80
2018-02-22T23:18:52.368Z,4.13
2018-02-22T23:21:19.917Z,4.17
2018-02-22T23:23:47.533Z,4.00
2018-02-22T23:26:15.092Z,4.30
2018-02-22T23:28:43.429Z,3.87
2018-02-22T23:31:11.289Z,3.70
2018-02-22T23:33:38.842Z,3.93
2018-02-22T23:36:06.424Z,3.80
2018-02-22T23:38:33.985Z,3.80
2018-02-22T23:41:01.553Z,3.80
2018-02-22T23:43:29.111Z,3.70
2018-02-22T23:45:56.671Z,4.27
2018-02-22T23:48:24.516Z,3.57
2018-02-22T23:50:52.083Z,3.70
2018-02-22T23:53:19.650Z,3.83
2018-02-22T23:55:47.225Z,4.00
2018-02-22T23:58:14.782Z,3.80
